sensor_id;sensor_type;location;lat;lon;timestamp;P1;durP1;ratioP1;P2;durP2;ratioP2
151;SDS011;68;48.792;9.164;2023-03-30T00:01:13;14.63;;;4.20;;
151;SDS011;68;48.792;9.164;2023-03-30T00:03:42;18.20;;;3.85;;
151;SDS011;68;48.792;9.164;2023-03-30T00:06:11;9.63;;;3.50;;
151;SDS011;68;48.792;9.164;2023-03-30T00:08:45;12.35;;;3.35;;
151;SDS011;68;48.792;9.164;2023-03-30T00:11:12;11.88;;;3.67;;
151;SDS011;68;48.792;9.164;2023-03-30T00:13:41;14.80;;;4.03;;
151;SDS011;68;48.792;9.164;2023-03-30T00:16:12;12.15;;;3.70;;
151;SDS011;68;48.792;9.164;2023-03-30T00:18:40;17.95;;;3.60;;
151;SDS011;68;48.792;9.164;2023-03-30T00:21:09;20.33;;;4.20;;
151;SDS011;68;48.792;9.164;2023-03-30T00:23:37;16.10;;;4.10;;
151;SDS011;68;48.792;9.164;2023-03-30T00:26:05;23.73;;;4.18;;
151;SDS011;68;48.792;9.164;2023-03-30T00:28:32;15.80;;;3.80;;
151;SDS011;68;48.792;9.164;2023-03-30T00:30:59;15.52;;;3.88;;
151;SDS011;68;48.792;9.164;2023-03-30T00:33:26;13.70;;;4.15;;
151;SDS011;68;48.792;9.164;2023-03-30T00:35:53;20.83;;;3.60;;
151;SDS011;68;48.792;9.164;2023-03-30T00:38:22;13.48;;;3.90;;
151;SDS011;68;48.792;9.164;2023-03-30T00:40:50;17.23;;;3.77;;
151;SDS011;68;48.792;9.164;2023-03-30T00:43:18;12.00;;;3.70;;
151;SDS011;68;48.792;9.164;2023-03-30T00:45:45;12.23;;;3.70;;
151;SDS011;68;48.792;9.164;2023-03-30T00:48:13;11.83;;;3.47;;
151;SDS011;68;48.792;9.164;2023-03-30T00:50:43;25.65;;;4.00;;
151;SDS011;68;48.792;9.164;2023-03-30T00:53:12;14.80;;;3.55;;
151;SDS011;68;48.792;9.164;2023-03-30T00:55:43;11.80;;;3.95;;
151;SDS011;68;48.792;9.164;2023-03-30T00:58:12;8.77;;;3.57;;
151;SDS011;68;48.792;9.164;2023-03-30T01:00:41;24.30;;;5.35;;
151;SDS011;68;48.792;9.164;2023-03-30T01:03:13;13.93;;;4.07;;
151;SDS011;68;48.792;9.164;2023-03-30T01:05:42;11.70;;;4.20;;
151;SDS011;68;48.792;9.164;2023-03-30T01:08:11;18.73;;;3.90;;
151;SDS011;68;48.792;9.164;2023-03-30T01:10:40;15.05;;;3.90;;
151;SDS011;68;48.792;9.164;2023-03-30T01:13:09;13.25;;;4.40;;
151;SDS011;68;48.792;9.164;2023-03-30T01:15:38;11.38;;;4.28;;
151;SDS011;68;48.792;9.164;2023-03-30T01:18:19;17.33;;;3.70;;
151;SDS011;68;48.792;9.164;2023-03-30T01:24:26;17.65;;;3.88;;
151;SDS011;68;48.792;9.164;2023-03-30T01:27:17;20.02;;;4.05;;
151;SDS011;68;48.792;9.164;2023-03-30T01:30:10;18.13;;;4.47;;
151;SDS011;68;48.792;9.164;2023-03-30T01:32:55;14.55;;;4.20;;
151;SDS011;68;48.792;9.164;2023-03-30T01:35:50;19.08;;;4.18;;
151;SDS011;68;48.792;9.164;2023-03-30T01:41:40;15.93;;;4.10;;
151;SDS011;68;48.792;9.164;2023-03-30T01:44:17;20.08;;;4.30;;
151;SDS011;68;48.792;9.164;2023-03-30T01:46:51;24.42;;;4.78;;
151;SDS011;68;48.792;9.164;2023-03-30T01:49:23;19.60;;;4.43;;
151;SDS011;68;48.792;9.164;2023-03-30T01:51:56;15.13;;;4.90;;
151;SDS011;68;48.792;9.164;2023-03-30T01:54:32;16.52;;;4.35;;
151;SDS011;68;48.792;9.164;2023-03-30T01:57:05;11.57;;;4.35;;
151;SDS011;68;48.792;9.164;2023-03-30T01:59:36;13.60;;;3.72;;
151;SDS011;68;48.792;9.164;2023-03-30T02:02:06;19.48;;;4.75;;
151;SDS011;68;48.792;9.164;2023-03-30T02:04:36;14.68;;;3.95;;
151;SDS011;68;48.792;9.164;2023-03-30T02:07:06;17.52;;;3.88;;
151;SDS011;68;48.792;9.164;2023-03-30T02:09:39;23.08;;;4.78;;
151;SDS011;68;48.792;9.164;2023-03-30T02:12:07;22.95;;;4.30;;
151;SDS011;68;48.792;9.164;2023-03-30T02:14:35;16.35;;;3.85;;
151;SDS011;68;48.792;9.164;2023-03-30T02:17:06;11.43;;;3.72;;
151;SDS011;68;48.792;9.164;2023-03-30T02:19:37;21.48;;;4.25;;
151;SDS011;68;48.792;9.164;2023-03-30T02:22:06;18.00;;;5.00;;
151;SDS011;68;48.792;9.164;2023-03-30T02:24:33;21.80;;;4.00;;
151;SDS011;68;48.792;9.164;2023-03-30T02:27:03;13.60;;;3.80;;
151;SDS011;68;48.792;9.164;2023-03-30T02:29:30;25.70;;;5.20;;
151;SDS011;68;48.792;9.164;2023-03-30T02:32:00;19.45;;;4.22;;
151;SDS011;68;48.792;9.164;2023-03-30T02:34:34;26.50;;;4.45;;
151;SDS011;68;48.792;9.164;2023-03-30T02:37:27;22.20;;;5.97;;
151;SDS011;68;48.792;9.164;2023-03-30T02:40:15;12.00;;;4.18;;
151;SDS011;68;48.792;9.164;2023-03-30T02:42:59;21.70;;;4.28;;
151;SDS011;68;48.792;9.164;2023-03-30T02:45:38;20.40;;;5.10;;
151;SDS011;68;48.792;9.164;2023-03-30T02:48:14;9.10;;;3.72;;
151;SDS011;68;48.792;9.164;2023-03-30T02:50:48;17.85;;;4.00;;
151;SDS011;68;48.792;9.164;2023-03-30T02:53:20;17.10;;;4.32;;
151;SDS011;68;48.792;9.164;2023-03-30T02:55:58;18.00;;;4.07;;
151;SDS011;68;48.792;9.164;2023-03-30T02:58:31;13.93;;;4.03;;
151;SDS011;68;48.792;9.164;2023-03-30T03:01:04;14.00;;;4.35;;
151;SDS011;68;48.792;9.164;2023-03-30T03:03:37;19.48;;;4.80;;
151;SDS011;68;48.792;9.164;2023-03-30T03:06:07;18.95;;;4.30;;
151;SDS011;68;48.792;9.164;2023-03-30T03:08:36;21.73;;;4.95;;
151;SDS011;68;48.792;9.164;2023-03-30T03:11:04;22.90;;;4.35;;
151;SDS011;68;48.792;9.164;2023-03-30T03:13:33;16.73;;;4.22;;
151;SDS011;68;48.792;9.164;2023-03-30T03:16:01;19.05;;;4.65;;
151;SDS011;68;48.792;9.164;2023-03-30T03:18:28;16.05;;;4.35;;
151;SDS011;68;48.792;9.164;2023-03-30T03:20:55;21.98;;;4.22;;
151;SDS011;68;48.792;9.164;2023-03-30T03:23:22;21.70;;;5.22;;
151;SDS011;68;48.792;9.164;2023-03-30T03:25:49;21.48;;;4.78;;
151;SDS011;68;48.792;9.164;2023-03-30T03:28:16;16.92;;;4.90;;
151;SDS011;68;48.792;9.164;2023-03-30T03:30:44;16.58;;;4.88;;
151;SDS011;68;48.792;9.164;2023-03-30T03:33:11;17.40;;;5.10;;
151;SDS011;68;48.792;9.164;2023-03-30T03:35:38;17.90;;;5.55;;
151;SDS011;68;48.792;9.164;2023-03-30T03:38:04;22.05;;;4.47;;
151;SDS011;68;48.792;9.164;2023-03-30T03:40:31;22.85;;;6.53;;
151;SDS011;68;48.792;9.164;2023-03-30T03:42:58;16.17;;;5.10;;
151;SDS011;68;48.792;9.164;2023-03-30T03:45:25;21.10;;;5.00;;
151;SDS011;68;48.792;9.164;2023-03-30T03:47:53;17.10;;;5.00;;
151;SDS011;68;48.792;9.164;2023-03-30T03:50:20;19.05;;;5.22;;
151;SDS011;68;48.792;9.164;2023-03-30T03:52:47;19.60;;;5.05;;
151;SDS011;68;48.792;9.164;2023-03-30T03:55:14;20.77;;;5.75;;
151;SDS011;68;48.792;9.164;2023-03-30T03:57:41;24.13;;;4.80;;
151;SDS011;68;48.792;9.164;2023-03-30T04:00:09;19.40;;;4.82;;
151;SDS011;68;48.792;9.164;2023-03-30T04:02:41;19.77;;;5.18;;
151;SDS011;68;48.792;9.164;2023-03-30T04:05:09;15.00;;;4.35;;
151;SDS011;68;48.792;9.164;2023-03-30T04:07:36;14.13;;;4.65;;
151;SDS011;68;48.792;9.164;2023-03-30T04:10:04;22.83;;;5.50;;
151;SDS011;68;48.792;9.164;2023-03-30T04:12:32;24.70;;;6.20;;
151;SDS011;68;48.792;9.164;2023-03-30T04:14:59;21.98;;;5.60;;
151;SDS011;68;48.792;9.164;2023-03-30T04:17:25;25.00;;;5.50;;
151;SDS011;68;48.792;9.164;2023-03-30T04:19:52;22.83;;;5.20;;
151;SDS011;68;48.792;9.164;2023-03-30T04:22:22;21.00;;;5.68;;
151;SDS011;68;48.792;9.164;2023-03-30T04:24:49;15.05;;;5.03;;
151;SDS011;68;48.792;9.164;2023-03-30T04:27:16;24.70;;;6.95;;
151;SDS011;68;48.792;9.164;2023-03-30T04:29:43;29.58;;;6.13;;
151;SDS011;68;48.792;9.164;2023-03-30T04:32:10;23.67;;;5.28;;
151;SDS011;68;48.792;9.164;2023-03-30T04:34:36;16.88;;;5.15;;
151;SDS011;68;48.792;9.164;2023-03-30T04:37:06;26.42;;;5.30;;
151;SDS011;68;48.792;9.164;2023-03-30T04:39:35;15.90;;;4.57;;
151;SDS011;68;48.792;9.164;2023-03-30T04:42:02;20.25;;;5.38;;
151;SDS011;68;48.792;9.164;2023-03-30T04:44:30;19.75;;;5.18;;
151;SDS011;68;48.792;9.164;2023-03-30T04:46:57;24.80;;;5.28;;
151;SDS011;68;48.792;9.164;2023-03-30T04:49:23;32.58;;;5.57;;
151;SDS011;68;48.792;9.164;2023-03-30T04:51:50;21.10;;;5.10;;
151;SDS011;68;48.792;9.164;2023-03-30T04:54:18;14.90;;;5.30;;
151;SDS011;68;48.792;9.164;2023-03-30T04:56:46;13.30;;;4.63;;
151;SDS011;68;48.792;9.164;2023-03-30T04:59:13;16.63;;;5.18;;
151;SDS011;68;48.792;9.164;2023-03-30T05:01:40;20.88;;;5.15;;
151;SDS011;68;48.792;9.164;2023-03-30T05:04:07;18.05;;;5.55;;
151;SDS011;68;48.792;9.164;2023-03-30T05:06:34;18.23;;;5.45;;
151;SDS011;68;48.792;9.164;2023-03-30T05:09:01;18.48;;;5.78;;
151;SDS011;68;48.792;9.164;2023-03-30T05:11:27;18.02;;;5.32;;
151;SDS011;68;48.792;9.164;2023-03-30T05:13:56;18.60;;;5.43;;
151;SDS011;68;48.792;9.164;2023-03-30T05:16:22;25.27;;;5.30;;
151;SDS011;68;48.792;9.164;2023-03-30T05:18:49;15.75;;;5.10;;
151;SDS011;68;48.792;9.164;2023-03-30T05:21:16;19.13;;;4.93;;
151;SDS011;68;48.792;9.164;2023-03-30T05:23:42;20.55;;;4.93;;
151;SDS011;68;48.792;9.164;2023-03-30T05:26:09;28.20;;;5.80;;
151;SDS011;68;48.792;9.164;2023-03-30T05:28:36;20.70;;;5.22;;
151;SDS011;68;48.792;9.164;2023-03-30T05:31:04;23.77;;;4.70;;
151;SDS011;68;48.792;9.164;2023-03-30T05:33:31;18.15;;;5.30;;
151;SDS011;68;48.792;9.164;2023-03-30T05:35:58;18.48;;;5.95;;
151;SDS011;68;48.792;9.164;2023-03-30T05:38:25;18.90;;;6.07;;
151;SDS011;68;48.792;9.164;2023-03-30T05:40:52;17.80;;;5.03;;
151;SDS011;68;48.792;9.164;2023-03-30T05:43:19;34.70;;;5.53;;
151;SDS011;68;48.792;9.164;2023-03-30T05:45:46;19.52;;;5.25;;
151;SDS011;68;48.792;9.164;2023-03-30T05:48:14;17.02;;;5.40;;
151;SDS011;68;48.792;9.164;2023-03-30T05:50:41;25.38;;;5.32;;
151;SDS011;68;48.792;9.164;2023-03-30T05:53:08;16.02;;;5.18;;
151;SDS011;68;48.792;9.164;2023-03-30T05:55:35;21.35;;;4.78;;
151;SDS011;68;48.792;9.164;2023-03-30T05:58:02;20.90;;;5.78;;
151;SDS011;68;48.792;9.164;2023-03-30T06:00:28;30.13;;;5.75;;
151;SDS011;68;48.792;9.164;2023-03-30T06:02:57;18.60;;;5.50;;
151;SDS011;68;48.792;9.164;2023-03-30T06:05:25;23.98;;;5.10;;
151;SDS011;68;48.792;9.164;2023-03-30T06:07:52;26.75;;;6.10;;
151;SDS011;68;48.792;9.164;2023-03-30T06:10:20;33.35;;;8.32;;
151;SDS011;68;48.792;9.164;2023-03-30T06:12:46;35.30;;;6.50;;
151;SDS011;68;48.792;9.164;2023-03-30T06:15:13;31.58;;;6.22;;
151;SDS011;68;48.792;9.164;2023-03-30T06:17:40;23.65;;;6.10;;
151;SDS011;68;48.792;9.164;2023-03-30T06:20:07;24.08;;;5.60;;
151;SDS011;68;48.792;9.164;2023-03-30T06:22:38;17.30;;;5.40;;
151;SDS011;68;48.792;9.164;2023-03-30T06:25:06;22.33;;;5.38;;
151;SDS011;68;48.792;9.164;2023-03-30T06:27:33;22.92;;;5.43;;
151;SDS011;68;48.792;9.164;2023-03-30T06:30:01;14.43;;;4.90;;
151;SDS011;68;48.792;9.164;2023-03-30T06:32:29;24.90;;;5.47;;
151;SDS011;68;48.792;9.164;2023-03-30T06:34:55;18.92;;;5.47;;
151;SDS011;68;48.792;9.164;2023-03-30T06:37:22;20.88;;;5.95;;
151;SDS011;68;48.792;9.164;2023-03-30T06:39:50;27.05;;;6.20;;
151;SDS011;68;48.792;9.164;2023-03-30T06:42:17;24.88;;;5.38;;
151;SDS011;68;48.792;9.164;2023-03-30T06:44:44;24.25;;;5.57;;
151;SDS011;68;48.792;9.164;2023-03-30T06:47:11;20.30;;;5.20;;
151;SDS011;68;48.792;9.164;2023-03-30T06:49:38;23.88;;;5.75;;
151;SDS011;68;48.792;9.164;2023-03-30T06:52:05;20.60;;;4.90;;
151;SDS011;68;48.792;9.164;2023-03-30T06:54:32;23.77;;;5.30;;
151;SDS011;68;48.792;9.164;2023-03-30T06:57:00;22.58;;;5.18;;
151;SDS011;68;48.792;9.164;2023-03-30T06:59:26;30.33;;;6.10;;
151;SDS011;68;48.792;9.164;2023-03-30T07:01:53;15.85;;;5.00;;
151;SDS011;68;48.792;9.164;2023-03-30T07:04:20;21.02;;;5.50;;
151;SDS011;68;48.792;9.164;2023-03-30T07:06:47;21.98;;;5.20;;
151;SDS011;68;48.792;9.164;2023-03-30T07:09:14;27.55;;;5.47;;
151;SDS011;68;48.792;9.164;2023-03-30T07:11:40;25.20;;;5.30;;
151;SDS011;68;48.792;9.164;2023-03-30T07:14:08;22.05;;;6.03;;
151;SDS011;68;48.792;9.164;2023-03-30T07:16:36;15.85;;;5.60;;
151;SDS011;68;48.792;9.164;2023-03-30T07:19:03;21.77;;;6.68;;
151;SDS011;68;48.792;9.164;2023-03-30T07:21:30;20.13;;;6.10;;
151;SDS011;68;48.792;9.164;2023-03-30T07:23:57;30.13;;;7.15;;
151;SDS011;68;48.792;9.164;2023-03-30T07:26:25;17.30;;;6.90;;
151;SDS011;68;48.792;9.164;2023-03-30T07:28:52;20.40;;;6.38;;
151;SDS011;68;48.792;9.164;2023-03-30T07:31:22;25.98;;;6.60;;
151;SDS011;68;48.792;9.164;2023-03-30T07:33:49;20.90;;;7.35;;
151;SDS011;68;48.792;9.164;2023-03-30T07:36:16;18.17;;;6.72;;
151;SDS011;68;48.792;9.164;2023-03-30T07:38:43;24.92;;;7.07;;
151;SDS011;68;48.792;9.164;2023-03-30T07:41:11;22.25;;;6.72;;
151;SDS011;68;48.792;9.164;2023-03-30T07:43:39;20.35;;;6.35;;
151;SDS011;68;48.792;9.164;2023-03-30T07:46:06;15.07;;;6.90;;
151;SDS011;68;48.792;9.164;2023-03-30T07:48:35;15.88;;;8.38;;
151;SDS011;68;48.792;9.164;2023-03-30T07:51:02;15.60;;;7.10;;
151;SDS011;68;48.792;9.164;2023-03-30T07:53:30;16.65;;;6.38;;
151;SDS011;68;48.792;9.164;2023-03-30T07:55:57;27.90;;;6.90;;
151;SDS011;68;48.792;9.164;2023-03-30T07:58:24;13.15;;;6.65;;
151;SDS011;68;48.792;9.164;2023-03-30T08:00:51;21.95;;;8.63;;
151;SDS011;68;48.792;9.164;2023-03-30T08:03:19;15.40;;;7.10;;
151;SDS011;68;48.792;9.164;2023-03-30T08:05:52;23.80;;;7.30;;
151;SDS011;68;48.792;9.164;2023-03-30T08:08:19;12.48;;;6.57;;
151;SDS011;68;48.792;9.164;2023-03-30T08:10:46;17.33;;;6.05;;
151;SDS011;68;48.792;9.164;2023-03-30T08:13:13;13.38;;;6.85;;
151;SDS011;68;48.792;9.164;2023-03-30T08:15:40;17.02;;;6.20;;
151;SDS011;68;48.792;9.164;2023-03-30T08:18:07;12.30;;;6.30;;
151;SDS011;68;48.792;9.164;2023-03-30T08:20:35;15.07;;;6.30;;
151;SDS011;68;48.792;9.164;2023-03-30T08:23:04;13.27;;;6.53;;
151;SDS011;68;48.792;9.164;2023-03-30T08:25:31;16.50;;;6.60;;
151;SDS011;68;48.792;9.164;2023-03-30T08:27:58;15.32;;;7.57;;
151;SDS011;68;48.792;9.164;2023-03-30T08:30:24;12.77;;;5.97;;
151;SDS011;68;48.792;9.164;2023-03-30T08:32:51;11.27;;;5.97;;
151;SDS011;68;48.792;9.164;2023-03-30T08:35:18;16.92;;;6.70;;
151;SDS011;68;48.792;9.164;2023-03-30T08:37:46;18.33;;;6.60;;
151;SDS011;68;48.792;9.164;2023-03-30T08:40:14;17.60;;;6.50;;
151;SDS011;68;48.792;9.164;2023-03-30T08:42:45;19.88;;;6.88;;
151;SDS011;68;48.792;9.164;2023-03-30T08:45:25;19.48;;;6.45;;
151;SDS011;68;48.792;9.164;2023-03-30T08:47:58;15.52;;;7.10;;
151;SDS011;68;48.792;9.164;2023-03-30T08:50:29;10.80;;;5.82;;
151;SDS011;68;48.792;9.164;2023-03-30T08:52:58;22.30;;;6.78;;
151;SDS011;68;48.792;9.164;2023-03-30T08:55:28;14.75;;;7.45;;
151;SDS011;68;48.792;9.164;2023-03-30T08:58:01;12.48;;;6.85;;
151;SDS011;68;48.792;9.164;2023-03-30T09:00:32;21.70;;;6.93;;
151;SDS011;68;48.792;9.164;2023-03-30T09:03:12;15.48;;;6.25;;
151;SDS011;68;48.792;9.164;2023-03-30T09:05:44;13.07;;;6.78;;
151;SDS011;68;48.792;9.164;2023-03-30T09:08:17;18.35;;;6.65;;
151;SDS011;68;48.792;9.164;2023-03-30T09:10:49;11.88;;;6.38;;
151;SDS011;68;48.792;9.164;2023-03-30T09:13:22;18.83;;;6.65;;
151;SDS011;68;48.792;9.164;2023-03-30T09:15:54;16.33;;;7.22;;
151;SDS011;68;48.792;9.164;2023-03-30T09:18:27;11.70;;;6.32;;
151;SDS011;68;48.792;9.164;2023-03-30T09:20:56;12.30;;;6.53;;
151;SDS011;68;48.792;9.164;2023-03-30T09:23:25;14.25;;;6.57;;
151;SDS011;68;48.792;9.164;2023-03-30T09:25:57;9.93;;;6.00;;
151;SDS011;68;48.792;9.164;2023-03-30T09:28:32;8.55;;;5.70;;
151;SDS011;68;48.792;9.164;2023-03-30T09:31:06;8.57;;;5.10;;
151;SDS011;68;48.792;9.164;2023-03-30T09:33:40;10.52;;;4.70;;
151;SDS011;68;48.792;9.164;2023-03-30T09:36:12;10.88;;;5.20;;
151;SDS011;68;48.792;9.164;2023-03-30T09:38:41;11.10;;;5.22;;
151;SDS011;68;48.792;9.164;2023-03-30T09:41:19;7.63;;;5.40;;
151;SDS011;68;48.792;9.164;2023-03-30T09:43:54;9.68;;;5.53;;
151;SDS011;68;48.792;9.164;2023-03-30T09:46:23;12.52;;;5.68;;
151;SDS011;68;48.792;9.164;2023-03-30T09:48:50;8.50;;;5.18;;
151;SDS011;68;48.792;9.164;2023-03-30T09:51:21;9.23;;;4.78;;
151;SDS011;68;48.792;9.164;2023-03-30T09:53:49;7.80;;;4.30;;
151;SDS011;68;48.792;9.164;2023-03-30T09:56:20;9.05;;;4.88;;
151;SDS011;68;48.792;9.164;2023-03-30T09:58:52;8.80;;;5.00;;
151;SDS011;68;48.792;9.164;2023-03-30T10:01:20;6.72;;;4.20;;
151;SDS011;68;48.792;9.164;2023-03-30T10:06:37;12.57;;;5.32;;
151;SDS011;68;48.792;9.164;2023-03-30T10:09:10;9.32;;;5.50;;
151;SDS011;68;48.792;9.164;2023-03-30T10:11:40;8.45;;;5.45;;
151;SDS011;68;48.792;9.164;2023-03-30T10:14:18;11.85;;;5.22;;
151;SDS011;68;48.792;9.164;2023-03-30T10:16:53;11.02;;;4.65;;
151;SDS011;68;48.792;9.164;2023-03-30T10:19:20;8.73;;;4.82;;
151;SDS011;68;48.792;9.164;2023-03-30T10:21:51;6.50;;;4.60;;
151;SDS011;68;48.792;9.164;2023-03-30T10:24:20;8.20;;;5.55;;
151;SDS011;68;48.792;9.164;2023-03-30T10:26:50;7.72;;;5.50;;
151;SDS011;68;48.792;9.164;2023-03-30T10:29:20;8.68;;;4.97;;
151;SDS011;68;48.792;9.164;2023-03-30T10:31:50;7.68;;;5.07;;
151;SDS011;68;48.792;9.164;2023-03-30T10:34:33;10.75;;;4.72;;
151;SDS011;68;48.792;9.164;2023-03-30T10:37:03;7.30;;;5.00;;
151;SDS011;68;48.792;9.164;2023-03-30T10:39:32;18.67;;;6.97;;
151;SDS011;68;48.792;9.164;2023-03-30T10:42:02;8.80;;;6.00;;
151;SDS011;68;48.792;9.164;2023-03-30T10:44:32;10.07;;;6.30;;
151;SDS011;68;48.792;9.164;2023-03-30T10:47:05;13.65;;;5.10;;
151;SDS011;68;48.792;9.164;2023-03-30T10:49:42;10.55;;;5.35;;
151;SDS011;68;48.792;9.164;2023-03-30T10:52:20;13.13;;;6.25;;
151;SDS011;68;48.792;9.164;2023-03-30T10:54:55;8.38;;;5.20;;
151;SDS011;68;48.792;9.164;2023-03-30T10:57:32;8.38;;;5.38;;
151;SDS011;68;48.792;9.164;2023-03-30T11:00:14;10.80;;;5.82;;
151;SDS011;68;48.792;9.164;2023-03-30T11:02:52;9.40;;;4.60;;
151;SDS011;68;48.792;9.164;2023-03-30T11:05:24;7.55;;;4.78;;
151;SDS011;68;48.792;9.164;2023-03-30T11:07:56;9.15;;;5.18;;
151;SDS011;68;48.792;9.164;2023-03-30T11:10:28;6.30;;;4.75;;
151;SDS011;68;48.792;9.164;2023-03-30T11:12:59;6.15;;;4.13;;
151;SDS011;68;48.792;9.164;2023-03-30T11:15:29;11.70;;;5.55;;
151;SDS011;68;48.792;9.164;2023-03-30T11:18:01;6.60;;;4.95;;
151;SDS011;68;48.792;9.164;2023-03-30T11:20:32;18.50;;;5.40;;
151;SDS011;68;48.792;9.164;2023-03-30T11:23:04;9.93;;;4.82;;
151;SDS011;68;48.792;9.164;2023-03-30T11:25:38;10.82;;;5.15;;
151;SDS011;68;48.792;9.164;2023-03-30T11:28:19;7.70;;;4.60;;
151;SDS011;68;48.792;9.164;2023-03-30T11:30:55;16.95;;;5.15;;
151;SDS011;68;48.792;9.164;2023-03-30T11:33:28;10.23;;;4.82;;
151;SDS011;68;48.792;9.164;2023-03-30T11:36:02;8.02;;;4.72;;
151;SDS011;68;48.792;9.164;2023-03-30T11:38:38;11.23;;;4.80;;
151;SDS011;68;48.792;9.164;2023-03-30T11:41:11;10.20;;;4.70;;
151;SDS011;68;48.792;9.164;2023-03-30T11:43:41;7.83;;;4.43;;
151;SDS011;68;48.792;9.164;2023-03-30T11:46:08;14.90;;;5.00;;
151;SDS011;68;48.792;9.164;2023-03-30T11:48:48;13.90;;;4.80;;
151;SDS011;68;48.792;9.164;2023-03-30T11:54:36;10.77;;;5.37;;
151;SDS011;68;48.792;9.164;2023-03-30T11:57:14;7.85;;;4.75;;
151;SDS011;68;48.792;9.164;2023-03-30T11:59:53;8.95;;;4.90;;
151;SDS011;68;48.792;9.164;2023-03-30T12:02:33;14.43;;;5.23;;
151;SDS011;68;48.792;9.164;2023-03-30T12:05:07;9.13;;;4.65;;
151;SDS011;68;48.792;9.164;2023-03-30T12:07:44;9.18;;;5.15;;
151;SDS011;68;48.792;9.164;2023-03-30T12:10:19;8.17;;;4.80;;
151;SDS011;68;48.792;9.164;2023-03-30T12:12:56;10.98;;;4.78;;
151;SDS011;68;48.792;9.164;2023-03-30T12:15:28;7.80;;;4.13;;
151;SDS011;68;48.792;9.164;2023-03-30T12:18:02;11.07;;;5.00;;
151;SDS011;68;48.792;9.164;2023-03-30T12:20:36;14.03;;;5.03;;
151;SDS011;68;48.792;9.164;2023-03-30T12:23:13;8.07;;;4.80;;
151;SDS011;68;48.792;9.164;2023-03-30T12:25:52;7.00;;;4.97;;
151;SDS011;68;48.792;9.164;2023-03-30T12:28:42;7.55;;;4.90;;
151;SDS011;68;48.792;9.164;2023-03-30T12:31:11;8.77;;;4.97;;
151;SDS011;68;48.792;9.164;2023-03-30T12:33:45;12.30;;;4.53;;
151;SDS011;68;48.792;9.164;2023-03-30T12:36:20;8.00;;;5.07;;
151;SDS011;68;48.792;9.164;2023-03-30T12:38:50;12.10;;;5.30;;
151;SDS011;68;48.792;9.164;2023-03-30T12:41:22;7.23;;;4.30;;
151;SDS011;68;48.792;9.164;2023-03-30T12:44:03;12.07;;;5.03;;
151;SDS011;68;48.792;9.164;2023-03-30T12:46:47;6.80;;;4.03;;
151;SDS011;68;48.792;9.164;2023-03-30T12:49:33;12.10;;;4.80;;
151;SDS011;68;48.792;9.164;2023-03-30T12:52:09;8.10;;;4.07;;
151;SDS011;68;48.792;9.164;2023-03-30T12:54:46;10.93;;;4.70;;
151;SDS011;68;48.792;9.164;2023-03-30T12:57:30;12.27;;;4.80;;
151;SDS011;68;48.792;9.164;2023-03-30T13:00:27;7.57;;;4.30;;
151;SDS011;68;48.792;9.164;2023-03-30T13:05:50;9.30;;;4.87;;
151;SDS011;68;48.792;9.164;2023-03-30T13:08:20;8.40;;;4.20;;
151;SDS011;68;48.792;9.164;2023-03-30T13:10:52;9.70;;;4.30;;
151;SDS011;68;48.792;9.164;2023-03-30T13:13:46;8.30;;;4.73;;
151;SDS011;68;48.792;9.164;2023-03-30T13:19:40;10.40;;;3.80;;
151;SDS011;68;48.792;9.164;2023-03-30T13:22:23;10.93;;;3.73;;
151;SDS011;68;48.792;9.164;2023-03-30T13:24:54;5.77;;;3.83;;
151;SDS011;68;48.792;9.164;2023-03-30T13:27:26;7.63;;;4.00;;
151;SDS011;68;48.792;9.164;2023-03-30T13:29:57;15.13;;;5.20;;
151;SDS011;68;48.792;9.164;2023-03-30T13:32:50;9.00;;;4.00;;
151;SDS011;68;48.792;9.164;2023-03-30T13:35:36;10.53;;;4.27;;
151;SDS011;68;48.792;9.164;2023-03-30T13:38:33;9.47;;;3.97;;
151;SDS011;68;48.792;9.164;2023-03-30T13:41:16;7.03;;;4.03;;
151;SDS011;68;48.792;9.164;2023-03-30T13:43:56;7.33;;;4.20;;
151;SDS011;68;48.792;9.164;2023-03-30T13:46:31;10.60;;;4.40;;
151;SDS011;68;48.792;9.164;2023-03-30T13:49:13;7.33;;;3.80;;
151;SDS011;68;48.792;9.164;2023-03-30T13:51:52;5.23;;;4.00;;
151;SDS011;68;48.792;9.164;2023-03-30T13:54:25;6.57;;;4.10;;
151;SDS011;68;48.792;9.164;2023-03-30T13:56:56;7.57;;;4.40;;
151;SDS011;68;48.792;9.164;2023-03-30T13:59:26;10.73;;;4.27;;
151;SDS011;68;48.792;9.164;2023-03-30T14:01:57;8.37;;;3.80;;
151;SDS011;68;48.792;9.164;2023-03-30T14:04:27;8.63;;;4.33;;
151;SDS011;68;48.792;9.164;2023-03-30T14:06:56;11.90;;;5.70;;
151;SDS011;68;48.792;9.164;2023-03-30T14:09:24;10.13;;;3.40;;
151;SDS011;68;48.792;9.164;2023-03-30T14:11:52;9.50;;;3.90;;
151;SDS011;68;48.792;9.164;2023-03-30T14:14:24;6.17;;;3.40;;
151;SDS011;68;48.792;9.164;2023-03-30T14:16:56;14.60;;;4.07;;
151;SDS011;68;48.792;9.164;2023-03-30T14:19:24;7.33;;;3.73;;
151;SDS011;68;48.792;9.164;2023-03-30T14:21:54;7.40;;;3.40;;
151;SDS011;68;48.792;9.164;2023-03-30T14:24:28;9.30;;;3.90;;
151;SDS011;68;48.792;9.164;2023-03-30T14:27:03;6.40;;;3.40;;
151;SDS011;68;48.792;9.164;2023-03-30T14:29:31;5.83;;;3.80;;
151;SDS011;68;48.792;9.164;2023-03-30T14:31:59;10.33;;;4.10;;
151;SDS011;68;48.792;9.164;2023-03-30T14:34:28;9.17;;;3.47;;
151;SDS011;68;48.792;9.164;2023-03-30T14:36:59;7.57;;;3.40;;
151;SDS011;68;48.792;9.164;2023-03-30T14:39:28;13.43;;;3.87;;
151;SDS011;68;48.792;9.164;2023-03-30T14:41:57;6.40;;;3.40;;
151;SDS011;68;48.792;9.164;2023-03-30T14:44:32;7.20;;;3.40;;
151;SDS011;68;48.792;9.164;2023-03-30T14:47:04;8.43;;;3.37;;
151;SDS011;68;48.792;9.164;2023-03-30T14:49:32;7.50;;;3.10;;
151;SDS011;68;48.792;9.164;2023-03-30T14:52:02;5.00;;;3.10;;
151;SDS011;68;48.792;9.164;2023-03-30T14:54:34;8.90;;;3.40;;
151;SDS011;68;48.792;9.164;2023-03-30T14:57:04;7.10;;;3.00;;
151;SDS011;68;48.792;9.164;2023-03-30T14:59:32;6.53;;;3.27;;
151;SDS011;68;48.792;9.164;2023-03-30T15:02:03;5.83;;;3.20;;
151;SDS011;68;48.792;9.164;2023-03-30T15:04:30;7.37;;;3.27;;
151;SDS011;68;48.792;9.164;2023-03-30T15:07:01;7.22;;;2.95;;
151;SDS011;68;48.792;9.164;2023-03-30T15:09:34;4.88;;;2.85;;
151;SDS011;68;48.792;9.164;2023-03-30T15:12:03;5.63;;;3.05;;
151;SDS011;68;48.792;9.164;2023-03-30T15:14:31;9.37;;;3.10;;
151;SDS011;68;48.792;9.164;2023-03-30T15:17:01;7.23;;;3.10;;
151;SDS011;68;48.792;9.164;2023-03-30T15:19:33;11.90;;;3.20;;
151;SDS011;68;48.792;9.164;2023-03-30T15:22:06;5.53;;;3.10;;
151;SDS011;68;48.792;9.164;2023-03-30T15:24:47;11.35;;;4.30;;
151;SDS011;68;48.792;9.164;2023-03-30T15:27:15;6.38;;;3.65;;
151;SDS011;68;48.792;9.164;2023-03-30T15:29:42;6.95;;;3.42;;
151;SDS011;68;48.792;9.164;2023-03-30T15:32:13;6.03;;;3.27;;
151;SDS011;68;48.792;9.164;2023-03-30T15:34:55;5.85;;;3.13;;
151;SDS011;68;48.792;9.164;2023-03-30T15:37:26;9.02;;;3.33;;
151;SDS011;68;48.792;9.164;2023-03-30T15:39:54;7.50;;;3.50;;
151;SDS011;68;48.792;9.164;2023-03-30T15:42:25;8.35;;;4.20;;
151;SDS011;68;48.792;9.164;2023-03-30T15:45:01;9.18;;;4.07;;
151;SDS011;68;48.792;9.164;2023-03-30T15:47:29;15.20;;;4.60;;
151;SDS011;68;48.792;9.164;2023-03-30T15:49:57;9.15;;;3.30;;
151;SDS011;68;48.792;9.164;2023-03-30T15:52:29;11.38;;;4.00;;
151;SDS011;68;48.792;9.164;2023-03-30T15:55:01;5.43;;;3.40;;
151;SDS011;68;48.792;9.164;2023-03-30T15:57:31;9.77;;;3.90;;
151;SDS011;68;48.792;9.164;2023-03-30T15:59:59;10.55;;;3.70;;
151;SDS011;68;48.792;9.164;2023-03-30T16:02:40;9.10;;;3.42;;
151;SDS011;68;48.792;9.164;2023-03-30T16:05:14;6.32;;;3.10;;
151;SDS011;68;48.792;9.164;2023-03-30T16:07:44;6.45;;;3.40;;
151;SDS011;68;48.792;9.164;2023-03-30T16:10:11;5.22;;;2.95;;
151;SDS011;68;48.792;9.164;2023-03-30T16:12:38;4.22;;;2.95;;
151;SDS011;68;48.792;9.164;2023-03-30T16:15:08;4.00;;;2.58;;
151;SDS011;68;48.792;9.164;2023-03-30T16:17:38;5.53;;;2.17;;
151;SDS011;68;48.792;9.164;2023-03-30T16:20:10;5.50;;;2.30;;
151;SDS011;68;48.792;9.164;2023-03-30T16:22:39;3.40;;;2.15;;
151;SDS011;68;48.792;9.164;2023-03-30T16:25:08;4.85;;;2.33;;
151;SDS011;68;48.792;9.164;2023-03-30T16:27:35;5.57;;;3.10;;
151;SDS011;68;48.792;9.164;2023-03-30T16:30:08;3.83;;;2.50;;
151;SDS011;68;48.792;9.164;2023-03-30T16:32:41;3.15;;;2.13;;